Time;durP1;ratioP1;P1;durP2;ratioP2;P2;SDS_P1;SDS_P2;PMS_P1;PMS_P2;Temp;Humidity;BMP_temperature;BMP_pressure;BME280_temperature;BME280_humidity;BME280_pressure;Samples;Min_cycle;Max_cycle;Signal;HPM_P1;HPM_P2
2022/06/08 00:01:20;;;;;;;9.60;3.92;;;;;;;;;;5079127;28;20111;-71
2022/06/08 00:03:52;;;;;;;9.68;4.25;;;;;;;;;;5075505;28;20028;-71
2022/06/08 00:06:18;;;;;;;6.63;4.28;;;;;;;;;;5068997;28;20134;-71
2022/06/08 00:08:45;;;;;;;13.38;4.82;;;;;;;;;;5055767;28;20388;-71
2022/06/08 00:11:11;;;;;;;9.05;4.50;;;;;;;;;;5044448;28;20033;-71
2022/06/08 00:13:38;;;;;;;6.03;3.92;;;;;;;;;;5041484;28;20057;-71
2022/06/08 00:16:04;;;;;;;11.13;4.30;;;;;;;;;;5058789;28;20043;-71
2022/06/08 00:18:31;;;;;;;9.15;5.18;;;;;;;;;;5055663;28;20028;-72
2022/06/08 00:20:57;;;;;;;10.07;4.97;;;;;;;;;;5060560;28;20120;-72
2022/06/08 00:23:23;;;;;;;10.60;4.75;;;;;;;;;;5063429;28;20436;-72
2022/06/08 00:25:49;;;;;;;10.27;4.38;;;;;;;;;;5041771;28;20151;-71
2022/06/08 00:28:15;;;;;;;6.90;4.43;;;;;;;;;;5063829;28;20020;-72
2022/06/08 00:30:42;;;;;;;7.05;4.63;;;;;;;;;;5066763;28;20431;-71
2022/06/08 00:33:08;;;;;;;8.45;4.20;;;;;;;;;;5043681;28;20437;-71
2022/06/08 00:35:34;;;;;;;12.63;4.90;;;;;;;;;;5063647;28;20108;-71
2022/06/08 00:38:00;;;;;;;7.70;4.30;;;;;;;;;;5058038;28;20037;-71
2022/06/08 00:40:35;;;;;;;12.68;4.28;;;;;;;;;;5061661;28;20040;-71
2022/06/08 00:43:01;;;;;;;7.30;3.72;;;;;;;;;;5044115;28;22006;-71
2022/06/08 00:45:27;;;;;;;10.05;4.13;;;;;;;;;;5055716;28;20038;-71
2022/06/08 00:48:01;;;;;;;10.45;4.47;;;;;;;;;;5059726;28;20081;-71
2022/06/08 00:50:29;;;;;;;7.07;4.70;;;;;;;;;;5054552;28;20080;-71
2022/06/08 00:52:56;;;;;;;11.55;4.18;;;;;;;;;;5062203;28;20047;-71
2022/06/08 00:55:24;;;;;;;11.05;4.80;;;;;;;;;;5042895;28;20031;-71
2022/06/08 00:57:52;;;;;;;5.18;3.90;;;;;;;;;;5060383;28;20447;-71
2022/06/08 01:00:20;;;;;;;8.90;4.93;;;;;;;;;;5064214;28;20035;-71
2022/06/08 01:02:47;;;;;;;10.60;5.03;;;;;;;;;;5059392;28;20380;-72
2022/06/08 01:05:31;;;;;;;11.23;4.55;;;;;;;;;;5063425;28;20534;-72
2022/06/08 01:08:03;;;;;;;11.65;4.28;;;;;;;;;;5053017;28;20453;-71
2022/06/08 01:10:31;;;;;;;7.78;4.60;;;;;;;;;;5058115;28;20032;-71
2022/06/08 01:13:04;;;;;;;10.52;4.75;;;;;;;;;;5053787;28;20043;-71
2022/06/08 01:15:30;;;;;;;12.68;6.07;;;;;;;;;;5044803;28;20451;-71
2022/06/08 01:17:57;;;;;;;7.85;5.35;;;;;;;;;;5060747;28;20356;-71
2022/06/08 01:20:23;;;;;;;10.98;5.63;;;;;;;;;;5062402;28;20036;-71
2022/06/08 01:22:51;;;;;;;11.73;5.25;;;;;;;;;;5059256;28;20032;-71
2022/06/08 01:25:17;;;;;;;13.70;6.05;;;;;;;;;;5060943;28;20032;-71
2022/06/08 01:27:58;;;;;;;13.70;6.72;;;;;;;;;;5040217;28;20045;-71
2022/06/08 01:30:25;;;;;;;12.52;6.72;;;;;;;;;;5056124;28;20020;-71
2022/06/08 01:33:18;;;;;;;12.55;6.82;;;;;;;;;;5059317;28;20040;-71
2022/06/08 01:35:44;;;;;;;7.30;6.47;;;;;;;;;;5021866;28;20917;-72
2022/06/08 01:38:16;;;;;;;20.40;7.10;;;;;;;;;;5055990;28;20060;-71
2022/06/08 01:41:01;;;;;;;13.13;6.75;;;;;;;;;;5050692;28;20063;-71
2022/06/08 01:43:31;;;;;;;15.05;6.93;;;;;;;;;;5063193;28;20044;-71
2022/06/08 01:46:09;;;;;;;11.70;6.65;;;;;;;;;;5053614;28;20029;-71
2022/06/08 01:48:42;;;;;;;14.70;7.30;;;;;;;;;;5063824;28;20031;-71
2022/06/08 01:51:11;;;;;;;10.57;6.30;;;;;;;;;;5062527;28;20060;-71
2022/06/08 01:53:48;;;;;;;11.55;7.65;;;;;;;;;;5065323;28;20032;-71
2022/06/08 01:56:17;;;;;;;13.80;7.15;;;;;;;;;;5043775;28;20025;-71
2022/06/08 01:58:53;;;;;;;12.20;7.40;;;;;;;;;;5060380;28;20029;-71
2022/06/08 02:01:27;;;;;;;11.27;8.13;;;;;;;;;;5053463;28;20467;-71
2022/06/08 02:04:01;;;;;;;12.80;7.35;;;;;;;;;;5058357;28;20044;-71
2022/06/08 02:06:34;;;;;;;11.60;7.97;;;;;;;;;;5058549;28;20033;-71
2022/06/08 02:09:32;;;;;;;13.48;9.43;;;;;;;;;;5058907;28;20037;-72
2022/06/08 02:12:06;;;;;;;13.25;8.00;;;;;;;;;;4998267;28;20072;-71
2022/06/08 02:14:52;;;;;;;10.18;8.50;;;;;;;;;;5040877;28;20044;-71
2022/06/08 02:17:30;;;;;;;12.13;8.65;;;;;;;;;;5053261;28;20029;-71
2022/06/08 02:20:06;;;;;;;13.40;9.23;;;;;;;;;;5057493;28;20067;-71
2022/06/08 02:22:37;;;;;;;14.88;8.95;;;;;;;;;;5063842;28;20041;-71
2022/06/08 02:25:21;;;;;;;19.75;10.10;;;;;;;;;;5060331;28;20119;-71
2022/06/08 02:28:07;;;;;;;16.02;10.80;;;;;;;;;;5059218;28;20406;-71
2022/06/08 02:30:38;;;;;;;28.58;12.13;;;;;;;;;;5064826;28;20067;-72
2022/06/08 02:36:17;;;;;;;17.23;9.90;;;;;;;;;;5028153;28;20045;-72
2022/06/08 02:38:48;;;;;;;21.52;11.45;;;;;;;;;;5063055;28;20108;-71
2022/06/08 02:41:15;;;;;;;16.75;10.98;;;;;;;;;;5057435;28;20026;-71
2022/06/08 02:43:44;;;;;;;22.85;12.00;;;;;;;;;;5063545;28;20419;-71
2022/06/08 02:46:17;;;;;;;17.45;10.88;;;;;;;;;;5061727;28;20108;-71
2022/06/08 02:48:44;;;;;;;17.25;11.88;;;;;;;;;;5061874;28;20039;-71
2022/06/08 02:51:10;;;;;;;16.08;11.55;;;;;;;;;;5062490;28;20033;-71
2022/06/08 02:53:39;;;;;;;16.60;11.05;;;;;;;;;;5057778;28;20036;-71
2022/06/08 02:56:24;;;;;;;14.30;10.75;;;;;;;;;;5066005;28;20024;-71
2022/06/08 02:58:55;;;;;;;18.48;12.40;;;;;;;;;;5061237;28;20140;-71
2022/06/08 03:01:26;;;;;;;24.00;12.57;;;;;;;;;;5062150;28;20456;-71
2022/06/08 03:03:54;;;;;;;20.77;12.27;;;;;;;;;;5046159;28;20032;-71
2022/06/08 03:06:23;;;;;;;19.73;12.68;;;;;;;;;;5065401;28;20032;-71
2022/06/08 03:08:54;;;;;;;23.83;13.85;;;;;;;;;;5055780;28;20040;-71
2022/06/08 03:11:20;;;;;;;21.60;12.35;;;;;;;;;;5063445;28;20033;-71
2022/06/08 03:13:52;;;;;;;18.05;12.50;;;;;;;;;;5062954;28;20052;-71
2022/06/08 03:16:44;;;;;;;21.33;12.68;;;;;;;;;;5059839;28;21387;-71
2022/06/08 03:19:10;;;;;;;22.02;12.45;;;;;;;;;;5053559;28;20436;-71
2022/06/08 03:21:36;;;;;;;17.35;12.38;;;;;;;;;;5050023;28;20114;-71
2022/06/08 03:24:03;;;;;;;15.95;11.52;;;;;;;;;;5069560;28;20044;-71
2022/06/08 03:26:36;;;;;;;19.60;11.63;;;;;;;;;;5062246;28;20032;-71
2022/06/08 03:29:02;;;;;;;16.10;11.00;;;;;;;;;;5063824;28;20124;-71
2022/06/08 03:31:28;;;;;;;23.55;11.65;;;;;;;;;;5054796;28;20123;-71
2022/06/08 03:33:54;;;;;;;21.65;11.73;;;;;;;;;;5059167;28;20584;-71
2022/06/08 03:36:20;;;;;;;22.23;12.48;;;;;;;;;;5059573;28;20039;-71
2022/06/08 03:38:46;;;;;;;16.33;12.77;;;;;;;;;;5058989;28;20360;-70
2022/06/08 03:41:12;;;;;;;22.90;12.13;;;;;;;;;;5064314;28;20039;-71
2022/06/08 03:43:38;;;;;;;17.30;13.45;;;;;;;;;;5067187;28;20112;-71
2022/06/08 03:46:05;;;;;;;24.58;12.48;;;;;;;;;;5058315;28;20301;-71
2022/06/08 03:48:33;;;;;;;21.92;11.93;;;;;;;;;;5066899;28;20115;-71
2022/06/08 03:51:00;;;;;;;20.90;12.80;;;;;;;;;;5058442;28;20704;-71
2022/06/08 03:53:35;;;;;;;18.30;13.07;;;;;;;;;;5058695;28;20627;-71
2022/06/08 03:56:02;;;;;;;20.63;12.40;;;;;;;;;;5060564;28;20078;-71
2022/06/08 03:58:28;;;;;;;19.20;12.02;;;;;;;;;;5058733;28;20036;-72
2022/06/08 04:00:55;;;;;;;16.35;12.32;;;;;;;;;;5062647;28;20039;-71
2022/06/08 04:03:21;;;;;;;17.75;13.27;;;;;;;;;;5063056;28;20047;-71
2022/06/08 04:05:47;;;;;;;17.88;12.90;;;;;;;;;;5060328;28;20135;-71
2022/06/08 04:08:13;;;;;;;19.60;14.02;;;;;;;;;;5062616;28;20139;-71
2022/06/08 04:10:39;;;;;;;22.88;13.10;;;;;;;;;;5059070;28;20024;-71
2022/06/08 04:13:05;;;;;;;16.63;13.40;;;;;;;;;;5060286;28;20098;-71
2022/06/08 04:15:44;;;;;;;18.77;14.32;;;;;;;;;;5061810;28;20032;-71
2022/06/08 04:18:12;;;;;;;18.30;13.00;;;;;;;;;;5060567;28;20476;-71
2022/06/08 04:20:38;;;;;;;19.23;14.65;;;;;;;;;;5064124;28;20032;-70
2022/06/08 04:23:05;;;;;;;21.15;13.82;;;;;;;;;;5050074;28;20135;-71
2022/06/08 04:25:31;;;;;;;24.10;15.38;;;;;;;;;;5049257;28;20028;-70
2022/06/08 04:27:57;;;;;;;22.60;14.88;;;;;;;;;;5061987;28;20097;-71
2022/06/08 04:30:23;;;;;;;21.50;14.40;;;;;;;;;;5062532;28;20041;-71
2022/06/08 04:32:49;;;;;;;22.67;14.05;;;;;;;;;;5061541;28;20045;-71
2022/06/08 04:35:16;;;;;;;21.17;14.98;;;;;;;;;;5056568;28;20055;-72
2022/06/08 04:37:42;;;;;;;29.55;16.05;;;;;;;;;;5058863;28;20036;-71
2022/06/08 04:40:10;;;;;;;31.77;21.83;;;;;;;;;;5073971;28;20032;-70
2022/06/08 04:42:36;;;;;;;28.52;18.05;;;;;;;;;;5077972;28;20653;-70
2022/06/08 04:45:02;;;;;;;26.98;18.55;;;;;;;;;;5063194;28;20107;-71
2022/06/08 04:47:28;;;;;;;25.67;15.75;;;;;;;;;;5067233;28;20044;-71
2022/06/08 04:49:54;;;;;;;24.77;14.77;;;;;;;;;;5041327;28;20070;-70
2022/06/08 04:52:20;;;;;;;20.15;15.73;;;;;;;;;;5060035;28;20028;-71
2022/06/08 04:54:46;;;;;;;21.38;15.00;;;;;;;;;;5053135;28;20464;-70
2022/06/08 04:57:13;;;;;;;24.10;16.02;;;;;;;;;;5061610;28;20053;-70
2022/06/08 04:59:40;;;;;;;29.33;17.60;;;;;;;;;;5057754;28;20052;-70
2022/06/08 05:02:06;;;;;;;26.38;15.50;;;;;;;;;;5045137;28;20124;-71
2022/06/08 05:04:32;;;;;;;27.23;16.42;;;;;;;;;;5057491;28;20391;-71
2022/06/08 05:06:58;;;;;;;20.17;15.15;;;;;;;;;;5056796;28;20032;-71
2022/06/08 05:09:24;;;;;;;25.30;15.93;;;;;;;;;;5063307;28;20563;-70
2022/06/08 05:11:50;;;;;;;25.52;16.73;;;;;;;;;;5061130;28;20362;-71
2022/06/08 05:14:16;;;;;;;22.90;16.88;;;;;;;;;;5044237;28;20651;-71
2022/06/08 05:16:43;;;;;;;22.52;16.52;;;;;;;;;;5049127;28;20037;-70
2022/06/08 05:19:09;;;;;;;41.50;24.42;;;;;;;;;;5052396;28;20078;-69
2022/06/08 05:21:36;;;;;;;27.05;17.27;;;;;;;;;;5060713;28;20045;-69
2022/06/08 05:24:02;;;;;;;21.85;16.67;;;;;;;;;;5063508;28;20024;-70
2022/06/08 05:26:28;;;;;;;20.98;15.45;;;;;;;;;;5054691;28;20086;-70
2022/06/08 05:28:54;;;;;;;25.55;16.75;;;;;;;;;;5044510;28;20033;-71
2022/06/08 05:31:20;;;;;;;27.55;16.45;;;;;;;;;;5047435;28;20028;-71
2022/06/08 05:33:46;;;;;;;19.50;13.90;;;;;;;;;;5050065;28;20060;-70
2022/06/08 05:36:12;;;;;;;17.60;13.35;;;;;;;;;;5027501;28;20159;-71
2022/06/08 05:38:38;;;;;;;23.75;14.80;;;;;;;;;;5050806;28;20109;-72
2022/06/08 05:41:04;;;;;;;26.40;16.23;;;;;;;;;;5050473;28;20455;-71
2022/06/08 05:43:30;;;;;;;20.27;15.18;;;;;;;;;;5033922;28;20068;-71
2022/06/08 05:45:56;;;;;;;25.70;16.20;;;;;;;;;;5051740;28;20036;-71
2022/06/08 05:48:22;;;;;;;24.35;15.30;;;;;;;;;;5049986;28;20543;-71
2022/06/08 05:50:48;;;;;;;26.30;16.55;;;;;;;;;;5048245;28;20045;-71
2022/06/08 05:53:15;;;;;;;25.58;15.48;;;;;;;;;;5050330;28;20037;-71
2022/06/08 05:55:42;;;;;;;20.83;14.93;;;;;;;;;;5053773;28;20040;-71
2022/06/08 05:58:09;;;;;;;23.75;14.13;;;;;;;;;;5047272;28;20032;-70
2022/06/08 06:00:36;;;;;;;23.05;13.60;;;;;;;;;;5055315;28;20028;-73
2022/06/08 06:03:03;;;;;;;19.40;13.10;;;;;;;;;;5052901;28;20037;-72
2022/06/08 06:05:30;;;;;;;21.30;12.85;;;;;;;;;;5050124;28;20082;-72
2022/06/08 06:07:56;;;;;;;17.77;12.00;;;;;;;;;;5045741;28;20152;-71
2022/06/08 06:10:23;;;;;;;21.25;13.70;;;;;;;;;;5050943;28;20033;-70
2022/06/08 06:12:53;;;;;;;17.10;13.20;;;;;;;;;;5048802;28;20040;-71
2022/06/08 06:15:19;;;;;;;17.23;12.68;;;;;;;;;;5060588;28;20472;-70
2022/06/08 06:17:45;;;;;;;17.42;12.57;;;;;;;;;;5057986;28;20036;-70
2022/06/08 06:20:12;;;;;;;19.83;13.05;;;;;;;;;;5053864;28;20044;-70
2022/06/08 06:22:38;;;;;;;17.15;12.38;;;;;;;;;;5054138;28;20528;-70
2022/06/08 06:25:05;;;;;;;16.77;12.50;;;;;;;;;;5051590;28;20499;-70
2022/06/08 06:27:31;;;;;;;20.50;13.18;;;;;;;;;;5040477;28;20036;-70
2022/06/08 06:29:57;;;;;;;17.45;12.13;;;;;;;;;;5069617;28;20032;-71
2022/06/08 06:32:30;;;;;;;16.75;13.15;;;;;;;;;;5054535;28;20052;-72
2022/06/08 06:34:58;;;;;;;25.88;17.25;;;;;;;;;;5057323;28;20028;-72
2022/06/08 06:37:24;;;;;;;18.77;12.95;;;;;;;;;;5048470;28;20024;-71
2022/06/08 06:39:51;;;;;;;18.25;12.73;;;;;;;;;;5054686;28;20035;-73
2022/06/08 06:42:18;;;;;;;18.17;12.02;;;;;;;;;;5054272;28;20067;-72
2022/06/08 06:44:44;;;;;;;18.92;11.95;;;;;;;;;;5055235;28;20504;-73
2022/06/08 06:47:11;;;;;;;20.90;11.35;;;;;;;;;;5061716;28;20041;-73
2022/06/08 06:49:37;;;;;;;15.10;12.25;;;;;;;;;;5057368;28;20032;-73
2022/06/08 06:52:03;;;;;;;19.73;12.13;;;;;;;;;;5065608;28;20134;-73
2022/06/08 06:54:29;;;;;;;16.60;11.85;;;;;;;;;;5059368;28;20028;-73
2022/06/08 06:56:55;;;;;;;16.42;11.73;;;;;;;;;;5055993;28;20636;-73
2022/06/08 06:59:21;;;;;;;14.32;11.07;;;;;;;;;;5050652;28;20115;-71
2022/06/08 07:01:47;;;;;;;14.48;10.43;;;;;;;;;;5053485;28;20124;-72
2022/06/08 07:04:14;;;;;;;19.58;11.35;;;;;;;;;;5049781;28;20048;-72
2022/06/08 07:06:40;;;;;;;20.70;10.65;;;;;;;;;;5060245;28;20025;-73
2022/06/08 07:09:06;;;;;;;18.27;10.60;;;;;;;;;;5055398;28;20394;-73
2022/06/08 07:11:41;;;;;;;15.90;10.52;;;;;;;;;;5062671;28;20116;-73
2022/06/08 07:14:09;;;;;;;14.32;10.02;;;;;;;;;;5058270;28;20099;-73
2022/06/08 07:16:35;;;;;;;13.88;10.45;;;;;;;;;;5045609;28;20052;-72
2022/06/08 07:19:01;;;;;;;16.92;10.15;;;;;;;;;;5062223;28;20144;-72
2022/06/08 07:21:27;;;;;;;17.00;10.20;;;;;;;;;;5058266;28;20044;-72
2022/06/08 07:23:54;;;;;;;16.13;10.68;;;;;;;;;;5060086;28;20024;-72
2022/06/08 07:26:24;;;;;;;13.68;9.68;;;;;;;;;;5040512;28;20056;-72
2022/06/08 07:28:50;;;;;;;14.63;9.18;;;;;;;;;;5061859;28;20029;-72
2022/06/08 07:31:16;;;;;;;14.75;9.45;;;;;;;;;;5049323;28;20031;-72
2022/06/08 07:33:42;;;;;;;11.40;8.93;;;;;;;;;;5059099;28;20510;-72
2022/06/08 07:36:08;;;;;;;11.40;8.00;;;;;;;;;;5062455;28;20045;-72
2022/06/08 07:38:34;;;;;;;13.27;8.13;;;;;;;;;;5056707;28;20029;-73
2022/06/08 07:41:00;;;;;;;17.10;10.40;;;;;;;;;;5061798;28;20400;-71
2022/06/08 07:43:27;;;;;;;13.00;7.18;;;;;;;;;;5055704;28;20484;-71
2022/06/08 07:45:53;;;;;;;11.88;7.80;;;;;;;;;;5052030;28;20119;-73
2022/06/08 07:51:03;;;;;;;7.75;5.47;;;;;;;;;;5057406;28;20534;-71
2022/06/08 07:53:29;;;;;;;6.85;5.30;;;;;;;;;;5062634;28;20045;-73
2022/06/08 07:55:55;;;;;;;9.27;5.20;;;;;;;;;;5059197;28;20376;-72
2022/06/08 07:58:22;;;;;;;8.23;4.45;;;;;;;;;;5057721;28;20064;-72
2022/06/08 08:00:48;;;;;;;6.03;4.15;;;;;;;;;;5059530;28;20491;-72
2022/06/08 08:03:17;;;;;;;9.23;4.65;;;;;;;;;;5054648;28;20162;-72
2022/06/08 08:05:44;;;;;;;7.05;3.80;;;;;;;;;;5063408;28;20502;-72
2022/06/08 08:08:10;;;;;;;6.47;4.20;;;;;;;;;;5058871;28;20031;-72
2022/06/08 08:10:36;;;;;;;8.02;4.10;;;;;;;;;;5054578;28;20070;-73
2022/06/08 08:13:02;;;;;;;9.73;4.75;;;;;;;;;;5059799;28;20059;-74
2022/06/08 08:15:29;;;;;;;9.75;4.20;;;;;;;;;;5059269;28;20025;-72
2022/06/08 08:17:55;;;;;;;5.25;3.22;;;;;;;;;;5056933;28;20043;-72
2022/06/08 08:20:23;;;;;;;8.27;3.67;;;;;;;;;;5069396;28;20034;-72
2022/06/08 08:22:49;;;;;;;4.97;3.25;;;;;;;;;;5058014;28;20104;-72
2022/06/08 08:25:16;;;;;;;4.80;3.45;;;;;;;;;;5058206;28;20041;-72
2022/06/08 08:27:42;;;;;;;7.82;3.75;;;;;;;;;;5068594;28;20040;-73
2022/06/08 08:30:09;;;;;;;6.55;3.35;;;;;;;;;;5066274;28;20031;-73
2022/06/08 08:32:36;;;;;;;3.95;2.63;;;;;;;;;;5055592;28;20169;-79
2022/06/08 08:35:02;;;;;;;9.68;5.97;;;;;;;;;;5061187;28;20492;-72
2022/06/08 08:37:28;;;;;;;4.22;2.25;;;;;;;;;;5059256;28;20105;-71
2022/06/08 08:39:55;;;;;;;3.47;2.58;;;;;;;;;;5043038;28;20028;-72
2022/06/08 08:42:21;;;;;;;3.35;2.30;;;;;;;;;;5047372;28;20185;-72
2022/06/08 08:44:49;;;;;;;3.90;2.92;;;;;;;;;;5053761;28;20039;-73
2022/06/08 08:47:24;;;;;;;7.43;2.78;;;;;;;;;;5061360;28;20040;-74
2022/06/08 08:49:58;;;;;;;3.53;1.60;;;;;;;;;;5055498;28;20056;-74
2022/06/08 08:52:33;;;;;;;5.25;1.80;;;;;;;;;;5066245;28;20484;-77
2022/06/08 08:55:04;;;;;;;4.60;2.08;;;;;;;;;;5055702;28;20126;-72
2022/06/08 08:57:42;;;;;;;5.30;2.08;;;20.90;99.90;;;;;;5055439;28;20029;-72
2022/06/08 09:00:18;;;;;;;3.75;2.35;;;;;;;;;;5055824;28;20061;-72
2022/06/08 09:05:31;;;;;;;3.08;1.55;;;;;;;;;;5055484;28;20115;-73
2022/06/08 09:07:58;;;;;;;3.22;2.03;;;;;;;;;;5060150;28;20033;-78
2022/06/08 09:10:25;;;;;;;5.05;1.88;;;;;;;;;;5043259;28;20033;-80
2022/06/08 09:12:51;;;;;;;6.45;1.63;;;;;;;;;;5062171;28;20123;-79
2022/06/08 09:15:19;;;;;;;3.22;1.92;;;;;;;;;;5060234;28;20569;-81
2022/06/08 09:17:56;;;;;;;4.13;1.90;;;;;;;;;;5065777;28;20040;-80
2022/06/08 09:20:22;;;;;;;2.42;1.92;;;;;;;;;;5068720;28;20028;-80
2022/06/08 09:22:49;;;;;;;4.35;2.55;;;;;;;;;;5066283;28;20033;-80
2022/06/08 09:25:35;;;;;;;3.38;2.00;;;;;;;;;;5069764;28;20044;-81
2022/06/08 09:28:01;;;;;;;4.47;2.20;;;;;;;;;;5077717;28;20055;-80
2022/06/08 09:30:28;;;;;;;3.97;2.25;;;;;;;;;;5085297;28;20028;-80
2022/06/08 09:32:59;;;;;;;4.18;2.15;;;;;;;;;;5079388;28;20044;-80
2022/06/08 09:35:34;;;;;;;3.95;1.95;;;;;;;;;;5074803;28;20028;-80
2022/06/08 09:38:13;;;;;;;3.40;1.73;;;;;;;;;;5073483;28;20020;-81
2022/06/08 09:40:54;;;;;;;4.18;1.90;;;;;;;;;;5080534;28;20031;-80
2022/06/08 09:43:34;;;;;;;3.30;1.88;;;;;;;;;;5079543;28;20036;-80
2022/06/08 09:46:05;;;;;;;4.90;2.00;;;;;;;;;;5067627;28;20110;-80
2022/06/08 09:51:30;;;;;;;3.47;2.08;;;;;;;;;;5074071;28;20044;-81
2022/06/08 09:54:15;;;;;;;4.60;2.55;;;;;;;;;;5069807;28;20041;-79
2022/06/08 09:56:54;;;;;;;4.57;1.90;;;;;;;;;;5058929;28;20473;-72
2022/06/08 09:59:23;;;;;;;8.60;4.72;;;;;;;;;;5056390;28;20028;-71
2022/06/08 10:01:55;;;;;;;4.10;2.80;;;;;;;;;;5053967;28;20037;-73
2022/06/08 10:04:33;;;;;;;;;;;22.80;99.90;;;;;;5052023;28;20472;-73
2022/06/08 10:07:47;;;;;;;3.35;2.28;;;22.80;99.90;;;;;;5057742;28;20322;-73
2022/06/08 10:10:35;;;;;;;4.75;2.50;;;;;;;;;;5045945;28;20103;-73
2022/06/08 10:13:03;;;;;;;4.88;2.67;;;;;;;;;;5055632;28;20147;-72
2022/06/08 10:15:34;;;;;;;2.72;2.35;;;;;;;;;;5055091;28;20487;-74
2022/06/08 10:18:13;;;;;;;3.60;2.60;;;;;;;;;;5052502;28;20031;-75
2022/06/08 10:20:40;;;;;;;4.57;2.40;;;;;;;;;;5056257;28;20485;-75
2022/06/08 10:23:45;;;;;;;5.80;2.70;;;22.40;99.90;;;;;;5054626;28;20032;-75
2022/06/08 10:26:19;;;;;;;6.38;3.20;;;;;;;;;;5054953;28;20053;-73
2022/06/08 10:28:48;;;;;;;3.55;2.65;;;;;;;;;;5062265;28;20713;-74
2022/06/08 10:31:33;;;;;;;7.30;3.03;;;;;;;;;;5055630;28;20106;-74
2022/06/08 10:34:18;;;;;;;5.65;3.47;;;;;;;;;;5055446;28;20075;-72
2022/06/08 10:36:47;;;;;;;7.45;4.00;;;;;;;;;;5051555;28;20029;-73
2022/06/08 10:39:13;;;;;;;5.93;4.50;;;;;;;;;;5053104;28;20037;-73
2022/06/08 10:44:34;;;;;;;10.45;5.38;;;;;;;;;;5063039;28;20071;-74
2022/06/08 10:47:13;;;;;;;7.47;4.65;;;;;;;;;;5062168;28;20033;-74
2022/06/08 10:49:38;;;;;;;6.28;4.50;;;;;;;;;;5065649;28;20024;-74
2022/06/08 10:52:20;;;;;;;11.82;7.57;;;;;;;;;;5059694;28;20059;-72
2022/06/08 10:54:54;;;;;;;8.35;5.50;;;18.80;99.90;;;;;;5057151;28;20036;-72
2022/06/08 10:57:42;;;;;;;10.40;4.43;;;;;;;;;;5057035;28;20444;-72
2022/06/08 11:00:16;;;;;;;6.03;4.07;;;;;;;;;;5056108;28;20725;-72
2022/06/08 11:02:45;;;;;;;6.80;4.40;;;;;;;;;;5058238;28;20041;-72
2022/06/08 11:05:34;;;;;;;5.55;4.43;;;18.70;99.90;;;;;;5060363;28;20160;-72
2022/06/08 11:08:06;;;;;;;8.60;5.05;;;;;;;;;;5061755;28;20032;-72
2022/06/08 11:10:44;;;;;;;;;;;18.70;99.90;;;;;;5059445;28;20476;-71
2022/06/08 11:13:15;;;;;;;9.82;5.43;;;;;;;;;;5053199;28;19931;-71
2022/06/08 11:15:44;;;;;;;7.85;5.40;;;;;;;;;;5055050;28;20107;-71
2022/06/08 11:18:31;;;;;;;8.02;5.20;;;19.00;99.90;;;;;;5050916;28;20514;-71
2022/06/08 11:21:14;;;;;;;8.80;5.47;;;;;;;;;;5058307;28;20028;-71
2022/06/08 11:23:43;;;;;;;7.93;5.32;;;;;;;;;;5057747;28;20114;-71
2022/06/08 11:26:09;;;;;;;13.57;5.63;;;;;;;;;;5061679;28;20021;-72
2022/06/08 11:28:43;;;;;;;7.18;4.93;;;18.60;99.90;;;;;;5059234;28;20029;-71
2022/06/08 11:31:24;;;;;;;9.25;5.20;;;;;;;;;;5052831;28;20112;-72
2022/06/08 11:33:53;;;;;;;12.90;5.53;;;;;;;;;;5056664;28;20566;-73
2022/06/08 11:36:42;;;;;;;10.10;6.72;;;;;;;;;;5059962;28;20591;-81
2022/06/08 11:39:27;;;;;;;9.05;5.60;;;;;;;;;;5056555;28;20033;-77
2022/06/08 11:41:59;;;;;;;7.35;5.35;;;;;;;;;;5055734;28;20041;-72
2022/06/08 11:44:27;;;;;;;7.43;4.80;;;;;;;;;;5057953;28;20036;-72
2022/06/08 11:47:01;;;;;;;8.57;5.30;;;;;;;;;;5047848;28;20035;-72
2022/06/08 11:49:32;;;;;;;7.95;5.68;;;;;;;;;;5059107;28;20043;-71
2022/06/08 11:51:58;;;;;;;9.30;5.80;;;;;;;;;;5058092;28;20033;-71
2022/06/08 11:54:25;;;;;;;9.40;5.43;;;;;;;;;;5037403;28;21550;-71
2022/06/08 11:56:51;;;;;;;8.32;4.28;;;;;;;;;;5062517;28;20024;-76
2022/06/08 11:59:21;;;;;;;7.70;4.07;;;;;;;;;;5040151;28;20090;-76
2022/06/08 12:01:54;;;;;;;10.43;3.70;;;21.10;99.90;;;;;;5061017;28;20029;-72
2022/06/08 12:04:26;;;;;;;7.50;3.63;;;21.00;99.90;;;;;;5060146;28;20482;-72
2022/06/08 12:06:53;;;;;;;;;;;;;;;;;;5058978;28;20040;-72
2022/06/08 12:09:21;;;;;;;8.63;3.15;;;;;;;;;;5061956;28;19916;-72
2022/06/08 12:11:57;;;;;;;7.22;3.47;;;20.80;99.90;;;;;;5058491;28;20492;-72
2022/06/08 12:14:29;;;;;;;9.80;3.65;;;;;;;;;;5059709;28;20080;-72
2022/06/08 12:16:58;;;;;;;7.53;3.50;;;;;;;;;;5057755;28;20044;-72
2022/06/08 12:19:25;;;;;;;6.20;3.30;;;;;;;;;;5061024;28;20052;-72
2022/06/08 12:22:08;;;;;;;6.65;3.20;;;;;;;;;;5059062;28;20048;-73
2022/06/08 12:24:34;;;;;;;10.57;4.20;;;;;;;;;;5060801;28;20093;-73
2022/06/08 12:27:21;;;;;;;7.15;3.38;;;20.10;99.90;;;;;;5059444;28;20026;-73
2022/06/08 12:29:53;;;;;;;6.18;3.40;;;;;;;;;;5061758;28;20388;-72
2022/06/08 12:32:28;;;;;;;9.13;3.10;;;;;;;;;;5057533;28;20047;-72
2022/06/08 12:35:09;;;;;;;5.05;3.13;;;;;;;;;;5059014;28;20069;-72
2022/06/08 12:37:39;;;;;;;10.50;3.22;;;20.10;99.90;;;;;;5056433;28;20181;-72
2022/06/08 12:40:17;;;;;;;10.73;2.80;;;;;;;;;;5059961;28;20021;-72
2022/06/08 12:42:51;;;;;;;14.75;4.43;;;;;;;;;;5058210;28;20045;-72
2022/06/08 12:45:30;;;;;;;15.02;6.97;;;;;;;;;;5060154;28;20029;-73
2022/06/08 12:47:56;;;;;;;12.88;7.65;;;;;;;;;;5057709;28;20187;-72
2022/06/08 12:50:24;;;;;;;13.23;9.20;;;;;;;;;;5062577;28;20140;-72
2022/06/08 12:52:50;;;;;;;13.80;10.27;;;;;;;;;;5056472;28;20124;-72
2022/06/08 12:55:19;;;;;;;13.77;10.75;;;;;;;;;;5058208;28;20385;-72
2022/06/08 12:57:46;;;;;;;12.93;11.27;;;;;;;;;;5061540;28;20028;-72
2022/06/08 13:00:13;;;;;;;14.95;12.48;;;;;;;;;;5056916;28;20024;-72
2022/06/08 13:02:40;;;;;;;18.50;12.75;;;;;;;;;;5059201;28;20132;-72
2022/06/08 13:05:18;;;;;;;16.00;13.27;;;;;;;;;;5059300;28;20024;-72
2022/06/08 13:07:44;;;;;;;16.33;11.70;;;;;;;;;;5059242;28;20058;-72
2022/06/08 13:10:10;;;;;;;14.75;12.15;;;;;;;;;;5039444;28;20106;-72
2022/06/08 13:12:49;;;;;;;17.65;13.30;;;18.20;99.90;;;;;;5056177;28;20049;-72
2022/06/08 13:15:15;;;;;;;13.98;12.65;;;;;;;;;;5055941;28;20056;-72
2022/06/08 13:17:42;;;;;;;19.55;14.38;;;;;;;;;;5052100;28;20059;-72
2022/06/08 13:20:14;;;;;;;16.88;12.70;;;;;;;;;;5044781;28;20079;-72
2022/06/08 13:22:40;;;;;;;16.73;13.52;;;;;;;;;;5058601;28;20028;-72
2022/06/08 13:25:07;;;;;;;17.70;12.73;;;;;;;;;;5057519;28;20490;-72
2022/06/08 13:27:34;;;;;;;17.98;14.95;;;;;;;;;;5060021;28;20369;-72
2022/06/08 13:30:00;;;;;;;15.77;11.55;;;;;;;;;;5057510;28;20074;-72
2022/06/08 13:32:26;;;;;;;16.10;10.27;;;;;;;;;;5059419;28;20044;-72
2022/06/08 13:34:52;;;;;;;10.20;8.93;;;;;;;;;;5070765;28;20028;-72
2022/06/08 13:37:24;;;;;;;11.48;7.88;;;18.20;99.90;;;;;;5053494;28;20040;-72
2022/06/08 13:39:50;;;;;;;14.52;8.65;;;;;;;;;;5071293;28;20021;-72
2022/06/08 13:42:17;;;;;;;9.15;7.28;;;;;;;;;;5061110;28;20083;-72
2022/06/08 13:44:47;;;;;;;7.80;5.97;;;;;;;;;;5058982;28;20074;-73
2022/06/08 13:47:13;;;;;;;8.93;6.10;;;;;;;;;;5055659;28;20131;-73
2022/06/08 13:49:43;;;;;;;10.48;5.78;;;;;;;;;;5059194;28;20044;-73
2022/06/08 13:52:11;;;;;;;9.32;5.30;;;;;;;;;;5060526;28;20032;-73
2022/06/08 13:54:39;;;;;;;6.30;5.60;;;;;;;;;;5054337;28;20037;-71
2022/06/08 13:57:15;;;;;;;10.65;6.55;;;18.70;99.90;;;;;;5059923;28;20028;-72
2022/06/08 13:59:42;;;;;;;7.35;5.57;;;;;;;;;;5040781;28;20048;-72
2022/06/08 14:02:14;;;;;;;8.60;5.60;;;;;;;;;;5057778;28;20032;-72
2022/06/08 14:04:41;;;;;;;9.32;5.75;;;;;;;;;;5056994;28;20104;-72
2022/06/08 14:13:01;;;;;;;7.57;1.70;;;;;;;;;;4996756;28;20042;-72
2022/06/08 14:15:28;;;;;;;4.35;1.85;;;;;;;;;;5000765;28;20086;-73
2022/06/08 14:17:55;;;;;;;3.72;2.00;;;;;;;;;;5036045;28;20041;-72
2022/06/08 14:20:23;;;;;;;4.93;1.73;;;;;;;;;;5060699;28;20029;-73
2022/06/08 14:22:49;;;;;;;4.32;1.88;;;;;;;;;;5064307;28;20037;-72
2022/06/08 14:25:17;;;;;;;6.05;2.40;;;;;;;;;;5064249;28;20036;-73
2022/06/08 14:27:43;;;;;;;6.30;1.63;;;;;;;;;;5063356;28;20426;-73
2022/06/08 14:30:11;;;;;;;5.85;1.92;;;;;;;;;;5064897;28;20032;-73
2022/06/08 14:32:40;;;;;;;6.10;1.90;;;;;;;;;;5045494;28;20051;-72
2022/06/08 14:35:16;;;;;;;6.05;1.52;;;19.10;99.90;;;;;;5060923;28;20033;-73
2022/06/08 14:37:42;;;;;;;3.05;1.30;;;;;;;;;;5059611;28;20090;-72
2022/06/08 14:40:20;;;;;;;3.90;1.40;;;;;;;;;;5061842;28;20053;-73
2022/06/08 14:42:46;;;;;;;5.13;1.63;;;;;;;;;;5063830;28;20032;-73
2022/06/08 14:45:13;;;;;;;5.07;1.25;;;;;;;;;;5061518;28;21794;-73
2022/06/08 14:47:39;;;;;;;3.30;1.00;;;;;;;;;;5064121;28;20062;-74
2022/06/08 14:50:08;;;;;;;4.53;1.13;;;;;;;;;;5045757;28;20078;-73
2022/06/08 14:52:35;;;;;;;2.35;0.68;;;;;;;;;;5061064;28;20044;-73
2022/06/08 14:55:03;;;;;;;2.92;1.08;;;;;;;;;;5059520;28;20032;-73
2022/06/08 14:57:33;;;;;;;3.58;1.42;;;;;;;;;;5058452;28;20032;-79
2022/06/08 15:00:13;;;;;;;5.63;1.42;;;;;;;;;;5060215;28;20060;-78